Time;durP1;ratioP1;P1;durP2;ratioP2;P2;SDS_P1;SDS_P2;PMS_P1;PMS_P2;Temp;Humidity;BMP_temperature;BMP_pressure;BME280_temperature;BME280_humidity;BME280_pressure;Samples;Min_cycle;Max_cycle;Signal;HPM_P1;HPM_P2
2023/07/08 00:04:16;;;;;;;1.92;1.40;;;;;;;22.67;38.59;101493.66;16111314;19;130734;-60
2023/07/08 00:09:41;;;;;;;3.35;1.58;;;;;;;22.67;38.58;101493.66;16117032;19;133800;-60
2023/07/08 00:15:04;;;;;;;3.07;1.40;;;;;;;22.67;38.42;101490.06;16115841;19;129722;-60
2023/07/08 00:20:36;;;;;;;2.20;1.45;;;;;;;22.67;38.34;101484.47;16111108;19;132879;-60
2023/07/08 00:25:58;;;;;;;1.90;1.42;;;;;;;22.65;38.23;101481.09;16118220;19;130006;-60
2023/07/08 00:31:23;;;;;;;1.40;1.30;;;;;;;22.64;38.26;101485.00;16112964;19;129530;-60
2023/07/08 00:36:46;;;;;;;2.30;1.50;;;;;;;22.63;38.40;101489.75;16113145;19;131549;-60
2023/07/08 00:42:18;;;;;;;1.55;1.30;;;;;;;22.63;38.54;101495.31;16109869;19;130211;-63
2023/07/08 00:47:41;;;;;;;2.67;1.20;;;;;;;22.62;38.37;101476.91;16116275;19;131503;-60
2023/07/08 00:53:26;;;;;;;2.17;1.33;;;;;;;22.62;38.55;101485.25;16112436;19;129967;-60
2023/07/08 00:59:07;;;;;;;2.03;1.38;;;;;;;22.61;38.58;101475.22;16107576;19;132057;-60
2023/07/08 01:04:48;;;;;;;2.88;1.10;;;;;;;22.61;38.28;101468.78;16110838;19;130114;-61
2023/07/08 01:10:15;;;;;;;2.83;1.40;;;;;;;22.59;38.39;101463.47;16111695;19;130599;-59
2023/07/08 01:15:42;;;;;;;2.28;1.40;;;;;;;22.59;38.42;101466.25;16110860;19;130818;-59
2023/07/08 01:21:29;;;;;;;2.08;1.35;;;;;;;22.57;38.81;101469.31;16107150;19;131640;-59
2023/07/08 01:26:51;;;;;;;1.60;1.30;;;;;;;22.57;38.37;101468.47;16114309;19;131674;-60
2023/07/08 01:32:17;;;;;;;1.85;1.08;;;;;;;22.56;38.28;101455.63;16117744;19;131147;-60
2023/07/08 01:37:44;;;;;;;1.65;1.20;;;;;;;22.57;38.50;101451.72;16107743;19;129868;-60
2023/07/08 01:43:06;;;;;;;1.65;1.10;;;;;;;22.56;38.34;101450.91;16111028;19;129920;-59
2023/07/08 01:48:37;;;;;;;2.35;1.13;;;;;;;22.56;38.50;101459.25;16113439;19;130257;-60
2023/07/08 01:53:59;;;;;;;0.95;0.82;;;;;;;22.54;38.44;101458.69;16113765;19;129902;-60
2023/07/08 01:59:21;;;;;;;1.38;1.08;;;;;;;22.53;38.80;101451.41;16112345;19;130407;-59
2023/07/08 02:04:43;;;;;;;1.40;0.95;;;;;;;22.53;38.78;101451.41;16110766;19;129557;-59
2023/07/08 02:10:06;;;;;;;1.17;0.90;;;;;;;22.54;38.65;101438.28;16111882;19;129742;-58
2023/07/08 02:15:27;;;;;;;3.60;1.17;;;;;;;22.54;38.65;101429.94;16109339;19;129329;-59
2023/07/08 02:20:49;;;;;;;1.52;0.90;;;;;;;22.53;38.58;101428.25;16110927;19;129623;-59
2023/07/08 02:26:11;;;;;;;2.72;1.10;;;;;;;22.52;38.64;101426.59;16113587;19;130242;-59
2023/07/08 02:31:33;;;;;;;1.20;0.90;;;;;;;22.51;38.64;101433.25;16114973;19;134213;-59
2023/07/08 02:36:56;;;;;;;1.27;0.85;;;;;;;22.51;38.83;101428.50;16112928;19;131704;-60
2023/07/08 02:42:18;;;;;;;1.38;0.90;;;;;;;22.51;38.60;101427.69;16109734;19;131868;-59
2023/07/08 02:47:40;;;;;;;2.13;1.00;;;;;;;22.49;38.51;101433.50;16105104;19;131319;-59
2023/07/08 02:53:02;;;;;;;1.50;0.90;;;;;;;22.50;38.68;101434.38;16104029;19;130807;-59
2023/07/08 02:58:24;;;;;;;1.58;0.98;;;;;;;22.49;38.74;101441.03;16104768;19;130861;-60
2023/07/08 03:03:47;;;;;;;1.02;0.80;;;;;;;22.50;38.86;101448.31;16121855;19;130976;-59
2023/07/08 03:09:11;;;;;;;0.88;0.80;;;;;;;22.48;38.57;101448.53;16118539;19;130388;-59
2023/07/08 03:14:34;;;;;;;1.27;0.77;;;;;;;22.48;38.86;101458.88;16120248;19;131963;-59
2023/07/08 03:19:55;;;;;;;1.38;0.80;;;;;;;22.48;38.66;101448.53;16126250;19;129613;-59
2023/07/08 03:25:19;;;;;;;1.40;0.93;;;;;;;22.47;38.81;101463.59;16125020;19;130452;-59
2023/07/08 03:30:42;;;;;;;1.42;0.88;;;;;;;22.47;38.73;101457.19;16122131;19;130181;-59
2023/07/08 03:36:12;;;;;;;1.05;0.80;;;;;;;22.47;38.87;101462.75;16115227;19;129791;-60
2023/07/08 03:41:33;;;;;;;0.60;0.60;;;;;;;22.46;38.68;101449.91;16118278;19;130497;-59
2023/07/08 03:46:55;;;;;;;1.13;0.75;;;;;;;22.47;39.17;101448.81;16118351;19;130185;-59
2023/07/08 03:52:18;;;;;;;0.90;0.70;;;;;;;22.46;38.72;101447.13;16114808;19;130795;-60
2023/07/08 03:57:40;;;;;;;1.67;0.68;;;;;;;22.45;38.68;101449.09;16117753;19;131619;-60
2023/07/08 04:03:02;;;;;;;1.00;0.80;;;;;;;22.44;38.84;101464.97;16116977;19;130341;-59
2023/07/08 04:08:24;;;;;;;1.70;0.90;;;;;;;22.44;39.29;101453.81;16111155;19;131144;-59
2023/07/08 04:13:46;;;;;;;1.52;0.90;;;;;;;22.44;38.77;101450.19;16115099;19;129546;-60
2023/07/08 04:19:14;;;;;;;0.65;0.60;;;;;;;22.42;39.02;101447.63;16113356;19;131006;-59
2023/07/08 04:24:36;;;;;;;1.25;0.82;;;;;;;22.43;39.01;101454.06;16112161;19;129408;-59
2023/07/08 04:29:58;;;;;;;0.70;0.50;;;;;;;22.42;39.15;101449.59;16119636;19;130370;-60
2023/07/08 04:35:20;;;;;;;1.23;0.60;;;;;;;22.42;39.05;101438.44;16114128;19;130172;-60
2023/07/08 04:40:42;;;;;;;1.33;0.93;;;;;;;22.42;39.24;101438.44;16110276;19;129809;-60
2023/07/08 04:46:17;;;;;;;1.17;0.82;;;;;;;22.42;38.99;101436.50;16111578;19;131291;-60
2023/07/08 04:51:40;;;;;;;1.02;0.80;;;;;;;22.41;39.09;101442.34;16109379;19;131304;-58
2023/07/08 04:57:02;;;;;;;0.80;0.80;;;;;;;22.41;39.04;101443.16;16113131;19;129447;-60
2023/07/08 05:02:24;;;;;;;1.27;0.70;;;;;;;22.41;39.04;101448.75;16111484;19;130525;-59
2023/07/08 05:07:46;;;;;;;2.55;1.02;;;;;;;22.42;38.85;101450.44;16110223;19;130631;-60
2023/07/08 05:13:08;;;;;;;1.75;0.90;;;;;;;22.42;39.12;101444.84;16108148;19;130262;-59
2023/07/08 05:18:30;;;;;;;1.15;0.80;;;;;;;22.42;39.02;101447.63;16109453;19;129887;-59
2023/07/08 05:23:53;;;;;;;0.98;0.88;;;;;;;22.43;39.24;101443.75;16108916;19;129569;-59
2023/07/08 05:29:15;;;;;;;1.70;1.00;;;;;;;22.44;38.97;101448.22;16110799;19;129936;-60
2023/07/08 05:34:37;;;;;;;1.40;1.00;;;;;;;22.44;39.11;101447.41;16111099;19;130465;-59
2023/07/08 05:40:01;;;;;;;0.77;0.70;;;;;;;22.46;39.02;101445.19;16111007;19;130465;-59
2023/07/08 05:45:23;;;;;;;2.80;1.07;;;;;;;22.46;39.35;101449.91;16109464;19;129591;-59
2023/07/08 05:50:47;;;;;;;1.98;0.70;;;;;;;22.47;39.15;101446.03;16107330;19;131616;-59
2023/07/08 05:56:09;;;;;;;1.55;0.82;;;;;;;22.46;39.30;101444.34;16108397;19;129524;-60
2023/07/08 06:01:31;;;;;;;0.70;0.70;;;;;;;22.49;39.14;101454.97;16105110;19;130832;-59
2023/07/08 06:06:53;;;;;;;1.42;0.77;;;;;;;22.48;39.27;101458.88;16105752;19;130816;-59
2023/07/08 06:12:15;;;;;;;1.20;0.90;;;;;;;22.48;39.01;101456.91;16106167;19;130211;-60
2023/07/08 06:17:37;;;;;;;1.30;0.82;;;;;;;22.49;39.13;101454.97;16106923;19;130195;-59
2023/07/08 06:22:59;;;;;;;3.50;1.00;;;;;;;22.49;39.06;101443.81;16102797;19;130986;-59
2023/07/08 06:28:21;;;;;;;1.30;0.90;;;;;;;22.49;39.14;101443.81;16108348;19;131166;-59
2023/07/08 06:33:43;;;;;;;2.20;0.90;;;;;;;22.49;39.49;101439.09;16111027;19;130209;-59
2023/07/08 06:39:07;;;;;;;1.73;1.00;;;;;;;22.51;39.20;101441.63;16120354;19;132119;-59
2023/07/08 06:44:29;;;;;;;1.27;1.00;;;;;;;22.51;39.11;101444.41;16127182;19;130752;-59
2023/07/08 06:49:51;;;;;;;1.92;0.90;;;;;;;22.51;39.37;101450.81;16122985;19;129759;-59
2023/07/08 06:55:13;;;;;;;0.80;0.70;;;;;;;22.52;39.18;101451.69;16123364;19;131475;-60
2023/07/08 07:00:35;;;;;;;1.48;0.90;;;;;;;22.53;39.24;101459.78;16123074;19;130980;-59
2023/07/08 07:05:57;;;;;;;1.20;0.90;;;;;;;22.53;39.25;101459.78;16124486;19;129937;-59
2023/07/08 07:11:19;;;;;;;1.67;0.95;;;;;;;22.53;39.57;101451.41;16122354;19;131011;-59
2023/07/08 07:16:42;;;;;;;2.22;1.05;;;;;;;22.54;39.31;101446.66;16124591;19;129876;-59
2023/07/08 07:22:23;;;;;;;1.83;0.90;;;;;;;22.55;39.37;101445.56;16121653;19;130806;-59
2023/07/08 07:27:45;;;;;;;3.55;1.38;;;;;;;22.56;39.70;101441.66;16120512;19;130050;-60
2023/07/08 07:33:06;;;;;;;1.30;0.95;;;;;;;22.56;39.47;101450.03;16120612;19;129921;-59
2023/07/08 07:38:30;;;;;;;2.45;1.45;;;;;;;22.58;39.24;101459.00;16127640;19;130831;-59
2023/07/08 07:43:51;;;;;;;1.75;1.42;;;;;;;22.58;39.71;101461.78;16125990;19;130960;-59
2023/07/08 07:49:13;;;;;;;2.15;1.60;;;;;;;22.60;39.42;101462.38;16123405;19;130779;-58
2023/07/08 07:54:35;;;;;;;3.92;1.83;;;;;;;22.60;39.85;101462.38;16124277;19;130390;-59
2023/07/08 07:59:57;;;;;;;2.70;1.60;;;;;;;22.61;39.47;101468.78;16124185;19;129701;-59
2023/07/08 08:05:19;;;;;;;3.83;1.90;;;;;;;22.61;39.69;101464.06;16120478;19;130192;-59
2023/07/08 08:10:44;;;;;;;3.17;2.13;;;;;;;22.64;39.82;101455.16;16122653;19;130008;-60
2023/07/08 08:16:06;;;;;;;5.33;3.07;;;;;;;22.64;40.21;101462.69;16114264;19;130093;-59
2023/07/08 08:21:27;;;;;;;11.18;4.10;;;;;;;22.66;40.81;101460.47;16117888;19;130424;-58
2023/07/08 08:26:49;;;;;;;7.95;4.20;;;;;;;22.59;40.83;101464.28;16114480;19;129608;-59
2023/07/08 08:32:11;;;;;;;8.77;4.43;;;;;;;22.64;40.53;101463.53;16115375;19;130684;-59
2023/07/08 08:37:33;;;;;;;8.55;3.55;;;;;;;22.68;40.67;101453.53;16116058;19;129591;-60
2023/07/08 08:43:06;;;;;;;7.18;3.33;;;;;;;22.69;40.87;101452.44;16115818;19;131702;-60
2023/07/08 08:48:32;;;;;;;5.63;3.45;;;;;;;22.70;40.53;101437.38;16114094;19;130283;-59
2023/07/08 08:53:57;;;;;;;5.82;3.47;;;;;;;22.73;40.57;101450.81;16114601;19;131441;-60
2023/07/08 08:59:44;;;;;;;6.60;3.15;;;;;;;22.77;40.34;101461.44;16110093;19;130392;-59
2023/07/08 09:05:09;;;;;;;5.57;2.88;;;;;;;22.77;40.23;101455.88;16116097;19;131472;-60
2023/07/08 09:10:37;;;;;;;6.68;2.95;;;;;;;22.79;40.37;101468.44;16116803;19;130517;-59
2023/07/08 09:16:06;;;;;;;6.63;2.65;;;;;;;22.81;40.22;101476.53;16112773;19;130233;-59
2023/07/08 09:22:02;;;;;;;4.22;2.78;;;;;;;22.82;40.27;101469.84;16110205;19;129723;-60
2023/07/08 09:27:23;;;;;;;6.65;2.53;;;;;;;22.81;40.42;101476.53;16111109;19;131067;-59
2023/07/08 09:32:46;;;;;;;4.82;2.85;;;;;;;22.83;40.58;101474.34;16106692;19;129472;-60
2023/07/08 09:38:13;;;;;;;4.75;2.55;;;;;;;22.84;40.19;101467.66;16112932;19;131238;-59
2023/07/08 09:43:38;;;;;;;4.05;2.38;;;;;;;22.85;40.38;101469.34;16112451;19;131932;-60
2023/07/08 09:49:14;;;;;;;3.87;2.43;;;;;;;22.86;40.38;101471.84;16109996;19;131509;-59
2023/07/08 09:54:36;;;;;;;3.92;2.35;;;;;;;22.86;40.44;101471.84;16112571;19;129667;-59
2023/07/08 10:00:02;;;;;;;7.90;3.03;;;;;;;22.88;40.35;101468.81;16112879;19;134311;-60
2023/07/08 10:05:40;;;;;;;4.20;2.17;;;;;;;22.91;40.38;101473.88;16110202;19;129436;-60
2023/07/08 10:11:21;;;;;;;4.15;2.15;;;;;;;22.91;40.51;101473.88;16111708;19;130841;-59
2023/07/08 10:16:43;;;;;;;4.75;2.42;;;;;;;22.89;40.36;101467.72;16111280;19;131278;-60
2023/07/08 10:22:22;;;;;;;3.92;2.63;;;;;;;22.92;40.34;101464.41;16106930;19;130211;-60
2023/07/08 10:28:06;;;;;;;3.22;2.30;;;;;;;22.91;40.77;101471.09;16110864;19;129940;-60
2023/07/08 10:34:04;;;;;;;3.00;2.15;;;;;;;22.93;40.35;101466.09;16107644;19;130823;-60
2023/07/08 10:39:39;;;;;;;3.38;2.25;;;;;;;22.95;40.47;101468.66;16109138;19;129490;-59
2023/07/08 10:45:12;;;;;;;3.83;2.10;;;;;;;22.96;40.44;101471.16;16107525;19;130685;-59
2023/07/08 10:50:55;;;;;;;3.45;2.20;;;;;;;22.98;40.43;101474.53;16108719;19;130408;-60
2023/07/08 10:56:51;;;;;;;5.60;2.40;;;;;;;22.98;40.38;101494.06;16109184;19;129634;-59
2023/07/08 11:02:38;;;;;;;3.80;2.13;;;;;;;22.97;40.41;101467.28;16109701;19;132119;-59
2023/07/08 11:08:13;;;;;;;4.35;2.72;;;;;;;22.99;40.65;101462.28;16105204;19;130440;-60
2023/07/08 11:13:44;;;;;;;3.53;2.77;;;;;;;22.99;40.45;101465.06;16111324;19;130158;-59
2023/07/08 11:19:20;;;;;;;4.00;2.33;;;;;;;23.01;40.39;101462.84;16108081;19;130519;-59
2023/07/08 11:24:46;;;;;;;3.42;2.28;;;;;;;23.01;40.50;101462.84;16126030;19;130350;-59
2023/07/08 11:30:13;;;;;;;4.97;2.40;;;;;;;23.02;40.32;101450.56;16121143;19;131394;-59
2023/07/08 11:35:41;;;;;;;6.05;2.90;;;;;;;23.03;40.59;101460.63;16118635;19;129663;-60
2023/07/08 11:41:13;;;;;;;3.58;2.58;;;;;;;23.05;40.28;101446.41;16123194;19;130184;-58
2023/07/08 11:46:35;;;;;;;3.70;2.75;;;;;;;23.06;40.59;101442.53;16122670;19;129494;-61
2023/07/08 11:51:58;;;;;;;5.28;3.15;;;;;;;23.08;40.22;101440.28;16122269;19;131310;-60
2023/07/08 11:57:36;;;;;;;5.55;3.42;;;;;;;23.10;40.32;101431.66;16119810;19;130848;-60
2023/07/08 12:03:20;;;;;;;4.63;3.45;;;;;;;23.11;40.66;101428.59;16122635;19;130081;-60
2023/07/08 12:08:42;;;;;;;7.05;3.85;;;;;;;23.12;40.27;101421.09;16117017;19;129911;-61
2023/07/08 12:14:06;;;;;;;6.28;3.45;;;;;;;23.12;40.72;101421.09;16118899;19;129957;-60
2023/07/08 12:19:31;;;;;;;4.67;3.47;;;;;;;23.13;40.52;101420.00;16113996;19;130227;-61
2023/07/08 12:24:58;;;;;;;6.82;3.78;;;;;;;23.15;40.34;101417.75;16120158;19;129518;-60
2023/07/08 12:30:20;;;;;;;8.23;3.72;;;;;;;23.16;40.31;101411.06;16116672;19;130137;-60
2023/07/08 12:35:44;;;;;;;7.63;3.53;;;;;;;23.17;40.48;101404.38;16114494;19;131308;-62
2023/07/08 12:41:16;;;;;;;11.45;3.80;;;;;;;23.19;40.63;101407.75;16117176;19;132348;-60
2023/07/08 12:46:39;;;;;;;5.93;3.50;;;;;;;23.20;40.33;101409.44;16121521;19;132005;-61
2023/07/08 12:52:01;;;;;;;6.63;3.65;;;;;;;23.21;40.47;101413.91;16117225;19;129429;-61
2023/07/08 12:57:23;;;;;;;6.93;3.85;;;;;;;23.26;40.03;101419.56;16118190;19;130301;-60
2023/07/08 13:02:47;;;;;;;12.68;4.45;;;;;;;23.35;40.28;101423.53;16112826;19;131365;-58
2023/07/08 13:08:20;;;;;;;9.18;3.83;;;;;;;23.45;40.80;101417.16;16111567;19;130207;-57
2023/07/08 13:13:54;;;;;;;13.55;4.30;;;;;;;23.56;41.12;101420.88;16117635;19;132077;-64
2023/07/08 13:19:17;;;;;;;11.50;3.92;;;;;;;23.61;41.01;101420.97;16121215;19;130999;-60
2023/07/08 13:24:43;;;;;;;19.55;5.07;;;;;;;23.68;41.50;101429.09;16118900;19;130312;-57
2023/07/08 13:30:23;;;;;;;11.82;4.15;;;;;;;23.80;41.27;101435.34;16116084;19;128975;-53
2023/07/08 13:35:47;;;;;;;13.70;4.25;;;;;;;23.87;41.02;101432.31;16115369;19;129639;-58
2023/07/08 13:41:12;;;;;;;10.17;3.70;;;;;;;23.96;41.50;101436.25;16117231;19;129963;-56
2023/07/08 13:46:44;;;;;;;17.33;5.03;;;;;;;24.04;41.32;101434.91;16117797;19;129501;-54
2023/07/08 13:52:20;;;;;;;13.18;4.60;;;;;;;24.09;40.97;101459.25;16114218;19;130152;-63
2023/07/08 13:57:42;;;;;;;8.70;4.90;;;;;;;24.13;41.01;101468.75;16115612;19;130277;-57
2023/07/08 14:03:05;;;;;;;10.68;4.28;;;;;;;24.16;41.17;101490.59;16112610;19;129815;-60
2023/07/08 14:08:27;;;;;;;11.85;4.15;;;;;;;24.21;41.47;101489.75;16109706;19;132055;-55
2023/07/08 14:13:50;;;;;;;11.52;3.88;;;;;;;24.24;41.19;101494.81;16106688;19;130211;-57
2023/07/08 14:19:26;;;;;;;10.35;3.88;;;;;;;24.31;40.99;101512.22;16103954;19;130574;-55
2023/07/08 14:24:49;;;;;;;10.27;3.90;;;;;;;24.30;40.94;101507.75;16107411;19;130075;-58
2023/07/08 14:30:11;;;;;;;7.60;3.88;;;;;;;24.31;40.98;101514.19;16110355;19;129619;-65
2023/07/08 14:35:34;;;;;;;8.93;3.67;;;;;;;24.31;41.12;101509.41;16111385;19;130733;-63
2023/07/08 14:40:56;;;;;;;14.43;3.88;;;;;;;24.31;41.01;101525.38;16115298;19;129468;-66
2023/07/08 14:46:19;;;;;;;8.38;3.15;;;;;;;24.31;41.04;101511.38;16112042;19;129687;-61
2023/07/08 14:51:41;;;;;;;11.48;3.20;;;;;;;24.29;41.12;101506.09;16112694;19;130463;-65
2023/07/08 14:57:07;;;;;;;8.25;2.92;;;;;;;24.28;41.30;101496.00;16120250;19;129916;-66
2023/07/08 15:02:29;;;;;;;7.13;3.20;;;;;;;24.29;41.22;101508.88;16129906;19;130601;-67
2023/07/08 15:07:53;;;;;;;7.70;2.78;;;;;;;24.29;41.58;101513.59;16127945;19;129810;-68
2023/07/08 15:13:18;;;;;;;7.65;2.83;;;;;;;24.31;41.56;101503.81;16129030;19;130034;-66
2023/07/08 15:18:40;;;;;;;12.57;3.17;;;;;;;24.34;41.32;101494.06;16128567;19;130176;-68
2023/07/08 15:24:03;;;;;;;5.97;2.63;;;;;;;24.38;41.68;101486.81;16127408;19;132002;-67
2023/07/08 15:29:25;;;;;;;7.90;2.78;;;;;;;24.43;41.70;101489.63;16124401;19;130482;-62
2023/07/08 15:34:47;;;;;;;11.38;2.53;;;;;;;24.45;41.89;101481.81;16119574;19;131186;-67
2023/07/08 15:40:12;;;;;;;6.95;2.78;;;;;;;24.55;41.67;101473.47;16116894;19;129752;-58
2023/07/08 15:45:37;;;;;;;9.00;2.72;;;;;;;24.60;41.47;101469.03;16114528;19;130453;-55
2023/07/08 15:50:58;;;;;;;11.23;2.70;;;;;;;24.61;41.98;101473.50;16113573;19;130468;-54
2023/07/08 15:56:22;;;;;;;9.43;2.97;;;;;;;24.59;41.76;101465.38;16118124;19;130317;-54
2023/07/08 16:01:44;;;;;;;10.50;3.13;;;;;;;24.58;41.76;101464.53;16111858;19;130029;-53
2023/07/08 16:07:09;;;;;;;10.73;2.83;;;;;;;24.56;41.40;101463.09;16116302;19;130308;-55
2023/07/08 16:12:35;;;;;;;8.98;3.40;;;;;;;24.57;41.79;101460.06;16110212;19;132008;-56
2023/07/08 16:17:57;;;;;;;7.07;3.22;;;;;;;24.64;41.34;101465.41;16114830;19;130231;-53
2023/07/08 16:23:19;;;;;;;10.80;3.03;;;;;;;24.65;41.45;101461.47;16113278;19;131176;-54
2023/07/08 16:28:44;;;;;;;7.55;3.35;;;;;;;24.63;41.41;101463.72;16121074;19;130179;-55
2023/07/08 16:34:09;;;;;;;;;;;;;;;24.59;41.50;101451.38;16114170;19;129812;-54
2023/07/08 16:39:30;;;;;;;8.60;3.83;;;;;;;24.64;41.22;101464.53;16115393;19;129823;-57
2023/07/08 16:44:53;;;;;;;19.10;4.03;;;;;;;24.63;41.21;101468.44;16114930;19;131195;-58
2023/07/08 16:50:16;;;;;;;11.23;3.72;;;;;;;24.64;41.59;101458.94;16115509;19;129953;-54
2023/07/08 16:55:38;;;;;;;6.45;3.78;;;;;;;24.64;41.63;101464.53;16114695;19;130890;-55
2023/07/08 17:01:02;;;;;;;7.38;3.20;;;;;;;24.65;41.48;101449.44;16116772;19;130208;-54
2023/07/08 17:06:24;;;;;;;5.43;3.60;;;;;;;24.65;41.21;101450.28;16116783;19;130506;-54
2023/07/08 17:11:46;;;;;;;6.22;3.38;;;;;;;24.65;41.63;101450.28;16113131;19;130761;-51
2023/07/08 17:17:13;;;;;;;5.50;3.42;;;;;;;24.69;41.57;101444.97;16114418;19;131176;-53
2023/07/08 17:22:35;;;;;;;6.18;3.40;;;;;;;24.69;41.26;101445.81;16112328;19;131083;-54
2023/07/08 17:27:59;;;;;;;6.27;3.90;;;;;;;24.71;41.49;101446.38;16115536;19;130786;-53
2023/07/08 17:33:22;;;;;;;6.82;3.65;;;;;;;24.71;41.53;101451.16;16111426;19;129271;-55
2023/07/08 17:38:49;;;;;;;7.72;3.22;;;;;;;24.72;41.87;101456.44;16111317;19;130911;-54
2023/07/08 17:44:11;;;;;;;6.55;3.13;;;;;;;24.73;41.94;101462.91;16112963;19;130309;-53
2023/07/08 17:49:33;;;;;;;5.88;3.05;;;;;;;24.72;41.78;101473.25;16108782;19;129655;-52
2023/07/08 17:54:55;;;;;;;6.32;2.85;;;;;;;24.73;41.68;101471.31;16111104;19;130403;-53
2023/07/08 18:00:23;;;;;;;4.32;2.83;;;;;;;24.71;41.88;101481.94;16105926;19;130677;-52
2023/07/08 18:05:45;;;;;;;4.47;3.08;;;;;;;24.68;41.93;101479.66;16114427;19;131123;-53
2023/07/08 18:11:14;;;;;;;6.03;2.88;;;;;;;24.66;41.39;101481.91;16107600;19;129769;-55
2023/07/08 18:16:36;;;;;;;7.85;3.03;;;;;;;24.63;41.56;101483.28;16111497;19;130965;-55
2023/07/08 18:22:02;;;;;;;5.20;3.00;;;;;;;24.61;41.46;101493.91;16111607;19;129640;-56
2023/07/08 18:27:24;;;;;;;4.82;2.92;;;;;;;24.59;41.70;101487.75;16111730;19;129624;-50
2023/07/08 18:32:49;;;;;;;3.38;2.60;;;;;;;24.57;41.91;101479.63;16105522;19;131717;-54
2023/07/08 18:38:11;;;;;;;;;;;;;;;24.51;41.62;101483.50;16106411;19;130023;-58
2023/07/08 18:43:33;;;;;;;3.90;2.47;;;;;;;24.53;41.62;101500.03;16111533;19;130794;-56
2023/07/08 18:48:55;;;;;;;3.15;2.40;;;;;;;24.51;41.65;101499.47;16108626;19;129815;-54
2023/07/08 18:54:19;;;;;;;3.10;2.45;;;;;;;24.50;42.14;101508.97;16104793;19;129733;-55
2023/07/08 18:59:42;;;;;;;3.80;2.35;;;;;;;24.48;41.78;101511.19;16105966;19;130352;-55
2023/07/08 19:05:04;;;;;;;2.67;2.20;;;;;;;24.47;42.05;101509.50;16103237;19;130935;-56
2023/07/08 19:10:30;;;;;;;5.05;2.20;;;;;;;24.46;41.71;101508.69;16108038;19;129616;-53
2023/07/08 19:15:52;;;;;;;2.40;1.75;;;;;;;24.45;41.70;101515.38;16106557;19;130442;-56
2023/07/08 19:21:17;;;;;;;2.95;2.30;;;;;;;24.45;42.04;101517.31;16100696;19;131023;-56
2023/07/08 19:26:39;;;;;;;2.70;1.92;;;;;;;24.43;42.41;101520.41;16107862;19;130016;-55
2023/07/08 19:32:01;;;;;;;8.13;2.42;;;;;;;24.42;42.41;101525.16;16098177;19;129761;-57
2023/07/08 19:37:23;;;;;;;4.45;2.22;;;;;;;24.40;42.38;101526.53;16096687;19;130457;-55
2023/07/08 19:42:48;;;;;;;5.70;2.10;;;;;;;24.40;42.45;101527.38;16107470;19;132144;-58
2023/07/08 19:48:11;;;;;;;13.17;2.83;;;;;;;24.42;43.34;101535.50;16117192;19;130458;-58
2023/07/08 19:53:33;;;;;;;10.88;3.22;;;;;;;24.41;43.81;101539.41;16118561;19;133850;-52
2023/07/08 19:58:55;;;;;;;7.32;2.45;;;;;;;24.38;43.54;101551.13;16124378;19;130203;-55
2023/07/08 20:04:20;;;;;;;9.65;2.88;;;;;;;24.38;44.04;101548.31;16123119;19;130272;-54
2023/07/08 20:09:42;;;;;;;3.92;2.63;;;;;;;24.36;44.17;101550.56;16120427;19;130991;-54
2023/07/08 20:15:04;;;;;;;6.13;2.60;;;;;;;24.34;43.94;101550.81;16123822;19;130253;-54
2023/07/08 20:20:27;;;;;;;8.70;2.40;;;;;;;24.34;43.42;101561.19;16123070;19;130216;-55
2023/07/08 20:25:50;;;;;;;3.30;2.35;;;;;;;24.32;43.97;101569.00;16124457;19;130900;-55
2023/07/08 20:31:12;;;;;;;6.43;3.13;;;;;;;24.34;44.33;101583.56;16119169;19;130887;-55
2023/07/08 20:36:34;;;;;;;10.80;3.47;;;;;;;24.36;44.91;101589.72;16123435;19;130530;-53
2023/07/08 20:41:56;;;;;;;10.90;3.75;;;;;;;24.34;44.88;101589.16;16121040;19;129459;-51
2023/07/08 20:47:18;;;;;;;10.35;3.40;;;;;;;24.34;44.80;101589.16;16120224;19;129569;-55
2023/07/08 20:52:40;;;;;;;7.65;3.00;;;;;;;24.33;44.44;101587.47;16115223;19;129936;-55
2023/07/08 20:58:02;;;;;;;7.60;3.20;;;;;;;24.31;44.79;101595.28;16118157;19;130476;-53
2023/07/08 21:03:26;;;;;;;7.60;2.80;;;;;;;24.29;44.64;101598.34;16119113;19;129786;-56
2023/07/08 21:08:49;;;;;;;12.90;3.67;;;;;;;24.28;44.75;101593.88;16119135;19;130159;-53
2023/07/08 21:14:11;;;;;;;5.93;2.65;;;;;;;24.27;44.58;101595.81;16115436;19;129773;-49
2023/07/08 21:19:33;;;;;;;9.05;2.75;;;;;;;24.25;44.52;101595.22;16115416;19;134249;-55
2023/07/08 21:24:55;;;;;;;3.65;2.35;;;;;;;24.24;44.69;101589.88;16110406;19;130564;-55
2023/07/08 21:30:19;;;;;;;7.40;2.58;;;;;;;24.20;44.61;101586.78;16106611;19;130059;-51
2023/07/08 21:35:41;;;;;;;3.45;2.33;;;;;;;24.19;44.36;101590.69;16111984;19;129110;-53
2023/07/08 21:41:03;;;;;;;4.65;2.03;;;;;;;24.19;44.56;101581.44;16115442;19;129662;-50
2023/07/08 21:46:25;;;;;;;6.75;2.00;;;;;;;24.18;44.19;101582.59;16111699;19;130044;-59
2023/07/08 21:51:48;;;;;;;5.85;2.55;;;;;;;24.16;44.36;101587.59;16108452;19;130689;-52
2023/07/08 21:57:14;;;;;;;7.50;2.03;;;;;;;24.15;44.14;101589.53;16110632;19;129776;-54
2023/07/08 22:02:48;;;;;;;5.60;2.20;;;;;;;24.15;44.30;101597.09;16109933;19;129944;-54
2023/07/08 22:08:15;;;;;;;3.92;2.13;;;;;;;24.13;44.44;101600.13;16110975;19;130033;-55
2023/07/08 22:13:40;;;;;;;3.88;2.00;;;;;;;24.10;44.26;101601.53;16110320;19;130781;-54
2023/07/08 22:19:04;;;;;;;4.63;1.70;;;;;;;24.10;44.33;101609.09;16108676;19;130965;-54
2023/07/08 22:24:26;;;;;;;3.20;1.80;;;;;;;24.08;44.40;101605.69;16105823;19;131616;-54
2023/07/08 22:29:48;;;;;;;4.25;1.65;;;;;;;24.07;43.94;101613.22;16106768;19;130194;-52
2023/07/08 22:35:30;;;;;;;4.45;1.65;;;;;;;24.07;44.20;101610.44;16106010;19;130258;-52
2023/07/08 22:40:52;;;;;;;2.72;1.70;;;;;;;24.05;44.22;101614.63;16108344;19;129929;-54
2023/07/08 22:46:14;;;;;;;2.75;1.60;;;;;;;24.04;44.44;101607.34;16112091;19;130759;-53
2023/07/08 22:51:41;;;;;;;3.95;1.77;;;;;;;24.04;44.27;101616.59;16108530;19;129875;-51
2023/07/08 22:57:04;;;;;;;2.05;1.33;;;;;;;24.05;44.55;101614.63;16104049;19;129580;-51
2023/07/08 23:02:26;;;;;;;2.45;1.50;;;;;;;24.03;44.35;101611.25;16108012;19;130915;-50
2023/07/08 23:07:48;;;;;;;4.60;1.83;;;;;;;24.03;44.28;101616.84;16101926;19;130092;-53
2023/07/08 23:13:19;;;;;;;1.75;1.45;;;;;;;24.04;44.19;101615.72;16106013;19;131047;-50
2023/07/08 23:18:46;;;;;;;1.70;1.33;;;;;;;24.02;44.16;101612.34;16115060;19;130366;-54
2023/07/08 23:24:09;;;;;;;2.88;1.42;;;;;;;24.01;44.09;101613.44;16120362;19;129419;-54
2023/07/08 23:29:31;;;;;;;1.60;1.30;;;;;;;24.01;44.12;101607.88;16122510;19;130302;-52
2023/07/08 23:34:53;;;;;;;4.22;1.70;;;;;;;24.01;43.77;101610.66;16116534;19;132823;-55
2023/07/08 23:40:16;;;;;;;2.08;1.45;;;;;;;23.99;44.03;101607.31;16124216;19;129858;-54
2023/07/08 23:45:38;;;;;;;1.60;1.27;;;;;;;23.99;44.26;101604.53;16121244;19;129223;-53
2023/07/08 23:51:00;;;;;;;2.03;1.10;;;;;;;23.99;43.96;101596.97;16096406;19;131125;-54
2023/07/08 23:56:29;;;;;;;3.35;1.30;;;;;;;23.99;44.00;101599.75;16099966;19;129548;-54
